Time;durP1;ratioP1;P1;durP2;ratioP2;P2;SDS_P1;SDS_P2;PMS_P1;PMS_P2;Temp;Humidity;BMP_temperature;BMP_pressure;BME280_temperature;BME280_humidity;BME280_pressure;Samples;Min_cycle;Max_cycle;Signal;HPM_P1;HPM_P2
2021/10/06 00:01:32;;;;;;;48.40;22.15;;;;;;;4.86;80.71;95291.59;1655292;86;21011;-55
2021/10/06 00:03:57;;;;;;;51.33;24.40;;;;;;;4.93;80.52;95288.85;1655664;86;21043;-55
2021/10/06 00:06:23;;;;;;;49.35;22.35;;;;;;;5.00;80.50;95295.63;1655375;86;21067;-55
2021/10/06 00:08:51;;;;;;;40.67;19.42;;;;;;;5.08;80.32;95292.45;1655446;86;21431;-55
2021/10/06 00:11:18;;;;;;;44.27;19.92;;;;;;;5.07;79.60;95290.91;1655026;86;21519;-55
2021/10/06 00:13:45;;;;;;;50.67;21.85;;;;;;;5.02;79.44;95293.27;1654356;86;21081;-56
2021/10/06 00:16:12;;;;;;;47.78;23.10;;;;;;;5.01;79.46;95293.84;1647343;86;20995;-56
2021/10/06 00:18:39;;;;;;;47.85;21.65;;;;;;;4.98;79.45;95302.82;1645760;87;21816;-56
2021/10/06 00:21:06;;;;;;;50.92;25.05;;;;;;;4.99;79.71;95292.10;1645485;86;21068;-56
2021/10/06 00:23:33;;;;;;;58.90;24.02;;;;;;;4.91;79.83;95295.27;1645301;86;20995;-56
2021/10/06 00:26:01;;;;;;;75.45;31.75;;;;;;;4.88;80.06;95294.12;1649501;86;21046;-56
2021/10/06 00:28:29;;;;;;;55.73;25.37;;;;;;;4.82;79.95;95288.88;1656940;86;21030;-56
2021/10/06 00:30:57;;;;;;;47.45;25.43;;;;;;;4.75;80.01;95291.66;1656706;86;21143;-56
2021/10/06 00:33:25;;;;;;;55.45;24.20;;;;;;;4.67;80.10;95291.50;1657283;86;21525;-56
2021/10/06 00:35:53;;;;;;;46.10;22.02;;;;;;;4.59;80.06;95283.76;1656782;86;21049;-56
2021/10/06 00:38:21;;;;;;;49.48;21.17;;;;;;;4.56;80.13;95283.16;1656880;86;21074;-56
2021/10/06 00:40:49;;;;;;;50.38;22.02;;;;;;;4.50;80.05;95285.54;1657107;86;21558;-56
2021/10/06 00:43:16;;;;;;;45.23;23.60;;;;;;;4.48;80.46;95283.80;1657328;86;21751;-56
2021/10/06 00:45:43;;;;;;;50.75;23.40;;;;;;;4.46;80.56;95286.11;1657221;86;20967;-57
2021/10/06 00:48:10;;;;;;;70.67;34.27;;;;;;;4.44;80.66;95289.82;1657135;86;21015;-55
2021/10/06 00:50:37;;;;;;;67.15;34.15;;;;;;;4.39;80.67;95286.16;1656959;86;21010;-57
2021/10/06 00:53:07;;;;;;;58.38;32.45;;;;;;;4.38;80.87;95285.20;1657105;86;21074;-56
2021/10/06 00:55:36;;;;;;;57.10;30.70;;;;;;;4.40;80.63;95274.08;1656942;86;22025;-56
2021/10/06 00:58:03;;;;;;;54.53;29.95;;;;;;;4.42;80.52;95273.10;1657050;86;21015;-56
2021/10/06 01:00:31;;;;;;;53.98;28.23;;;;;;;4.45;80.46;95268.22;1657070;85;20987;-55
2021/10/06 01:02:58;;;;;;;47.13;25.20;;;;;;;4.46;80.34;95269.77;1657346;85;21015;-56
2021/10/06 01:05:25;;;;;;;49.27;22.22;;;;;;;4.49;80.42;95273.66;1656850;86;21050;-55
2021/10/06 01:07:51;;;;;;;42.50;19.87;;;;;;;4.47;80.53;95276.01;1657215;86;21174;-55
2021/10/06 01:10:18;;;;;;;47.55;20.75;;;;;;;4.41;80.63;95287.89;1656892;86;21012;-56
2021/10/06 01:12:45;;;;;;;29.63;17.20;;;;;;;4.37;80.56;95281.69;1657014;86;21058;-56
2021/10/06 01:15:13;;;;;;;46.80;20.77;;;;;;;4.31;80.50;95280.55;1657052;86;20972;-57
2021/10/06 01:17:41;;;;;;;51.37;21.85;;;;;;;4.21;80.61;95282.70;1657107;86;20978;-56
2021/10/06 01:20:10;;;;;;;47.33;24.77;;;;;;;4.12;80.78;95278.27;1656959;86;21135;-56
2021/10/06 01:22:36;;;;;;;50.95;22.55;;;;;;;4.07;81.12;95277.28;1657090;86;21019;-56
2021/10/06 01:25:04;;;;;;;45.85;22.73;;;;;;;4.08;81.09;95282.92;1656864;86;21050;-57
2021/10/06 01:27:31;;;;;;;36.55;18.23;;;;;;;4.07;80.99;95276.52;1657294;86;21003;-56
2021/10/06 01:29:57;;;;;;;39.03;21.30;;;;;;;4.06;80.98;95274.98;1657065;86;21202;-57
2021/10/06 01:32:24;;;;;;;49.20;21.95;;;;;;;3.99;81.19;95278.48;1656879;86;21302;-57
2021/10/06 01:34:57;;;;;;;38.60;21.95;;;;;;;3.97;81.41;95267.22;1656882;86;21051;-57
2021/10/06 01:37:26;;;;;;;43.28;22.00;;;;;;;3.97;81.53;95267.22;1657131;86;21062;-57
2021/10/06 01:39:53;;;;;;;47.08;21.40;;;;;;;3.97;81.50;95259.05;1657069;86;20983;-57
2021/10/06 01:42:20;;;;;;;35.48;21.10;;;;;;;3.97;81.31;95252.81;1657179;86;21420;-57
2021/10/06 01:44:51;;;;;;;39.55;20.00;;;;;;;3.97;81.17;95252.25;1656979;86;21562;-57
2021/10/06 01:47:20;;;;;;;32.78;20.43;;;;;;;4.02;81.09;95258.64;1657117;86;21015;-56
2021/10/06 01:49:47;;;;;;;37.00;22.05;;;;;;;4.08;81.04;95248.89;1657081;86;21563;-56
2021/10/06 01:52:18;;;;;;;34.70;20.60;;;;;;;4.07;80.67;95252.78;1656995;86;20999;-56
2021/10/06 01:54:45;;;;;;;37.17;21.17;;;;;;;4.04;80.49;95244.05;1656953;86;21122;-56
2021/10/06 01:57:12;;;;;;;44.55;22.80;;;;;;;4.02;80.34;95249.11;1657028;86;21142;-56
2021/10/06 01:59:40;;;;;;;44.18;20.65;;;;;;;3.99;80.15;95251.27;1656818;85;21098;-56
2021/10/06 02:02:07;;;;;;;39.40;19.82;;;;;;;3.99;80.21;95253.98;1657116;86;21071;-56
2021/10/06 02:04:33;;;;;;;41.77;20.10;;;;;;;3.99;80.29;95260.00;1657019;86;20971;-56
2021/10/06 02:07:01;;;;;;;46.53;20.88;;;;;;;3.96;80.47;95265.66;1657053;86;20991;-57
2021/10/06 02:09:28;;;;;;;31.30;18.95;;;;;;;3.93;80.63;95265.66;1656992;86;22335;-56
2021/10/06 02:11:54;;;;;;;45.23;18.67;;;;;;;3.87;80.77;95261.20;1656994;86;21131;-57
2021/10/06 02:14:21;;;;;;;31.33;17.85;;;;;;;3.85;80.84;95258.09;1657035;86;22185;-56
2021/10/06 02:16:47;;;;;;;29.15;15.38;;;;;;;3.83;80.86;95260.43;1656982;86;21022;-56
2021/10/06 02:19:14;;;;;;;34.43;16.67;;;;;;;3.79;80.76;95262.39;1657148;86;21501;-56
2021/10/06 02:21:41;;;;;;;31.93;19.32;;;;;;;3.72;80.87;95257.53;1656857;86;21074;-57
2021/10/06 02:24:08;;;;;;;39.20;18.87;;;;;;;3.64;80.81;95260.84;1656982;86;21518;-57
2021/10/06 02:26:34;;;;;;;36.90;17.57;;;;;;;3.51;80.99;95258.32;1657101;86;21026;-57
2021/10/06 02:29:01;;;;;;;42.15;20.08;;;;;;;3.42;81.20;95257.76;1656985;86;20998;-57
2021/10/06 02:31:27;;;;;;;32.85;18.60;;;;;;;3.34;81.42;95262.98;1656977;86;21074;-57
2021/10/06 02:33:54;;;;;;;36.15;19.25;;;;;;;3.30;81.73;95258.92;1657068;86;21154;-57
2021/10/06 02:36:22;;;;;;;28.38;16.20;;;;;;;3.29;81.96;95262.81;1656823;86;21105;-57
2021/10/06 02:38:49;;;;;;;39.42;19.23;;;;;;;3.31;81.90;95262.41;1657220;86;21019;-57
2021/10/06 02:41:16;;;;;;;39.65;17.85;;;;;;;3.25;82.08;95269.41;1656972;86;21015;-57
2021/10/06 02:43:43;;;;;;;32.13;16.73;;;;;;;3.24;82.15;95257.73;1657165;86;21027;-57
2021/10/06 02:46:09;;;;;;;31.40;18.30;;;;;;;3.23;82.02;95256.78;1657340;86;21144;-57
2021/10/06 02:48:36;;;;;;;28.98;16.80;;;;;;;3.20;82.02;95264.36;1657031;86;21079;-56
2021/10/06 02:51:02;;;;;;;30.40;16.73;;;;;;;3.16;82.16;95264.91;1657247;86;20975;-56
2021/10/06 02:53:29;;;;;;;36.98;17.82;;;;;;;3.13;82.20;95260.26;1657104;86;21007;-56
2021/10/06 02:55:55;;;;;;;39.03;20.02;;;;;;;3.15;82.13;95265.52;1657431;86;21106;-57
2021/10/06 02:58:22;;;;;;;49.77;20.23;;;;;;;3.13;82.13;95263.77;1657024;86;21562;-56
2021/10/06 03:00:48;;;;;;;48.83;22.90;;;;;;;3.11;82.13;95264.73;1657336;85;21455;-56
2021/10/06 03:03:15;;;;;;;45.28;22.05;;;;;;;3.11;82.28;95257.94;1656907;86;21066;-56
2021/10/06 03:05:42;;;;;;;38.78;22.48;;;;;;;3.12;82.20;95262.22;1657124;86;20991;-56
2021/10/06 03:08:08;;;;;;;47.62;20.55;;;;;;;3.09;82.09;95260.84;1657072;86;21003;-56
2021/10/06 03:10:35;;;;;;;41.33;21.05;;;;;;;3.07;82.05;95260.45;1657416;86;21133;-56
2021/10/06 03:13:01;;;;;;;39.85;21.82;;;;;;;3.08;82.03;95263.36;1657029;86;21027;-55
2021/10/06 03:15:28;;;;;;;40.60;21.85;;;;;;;3.12;82.25;95261.42;1657324;86;21023;-56
2021/10/06 03:17:54;;;;;;;41.02;22.50;;;;;;;3.19;82.19;95269.58;1656984;86;20971;-55
2021/10/06 03:20:21;;;;;;;39.55;19.55;;;;;;;3.24;81.83;95267.25;1657204;86;21114;-56
2021/10/06 03:22:49;;;;;;;35.83;18.80;;;;;;;3.26;81.45;95264.16;1657094;86;21653;-55
2021/10/06 03:25:16;;;;;;;31.50;17.37;;;;;;;3.26;81.13;95270.95;1657187;86;21050;-56
2021/10/06 03:27:42;;;;;;;26.97;16.70;;;;;;;3.27;81.02;95273.87;1657299;86;21448;-56
2021/10/06 03:30:11;;;;;;;35.35;17.62;;;;;;;3.31;80.92;95269.99;1648447;86;21035;-55
2021/10/06 03:32:38;;;;;;;27.55;16.10;;;;;;;3.37;80.94;95264.92;1641868;86;21016;-57
2021/10/06 03:35:06;;;;;;;27.22;16.60;;;;;;;3.44;80.69;95262.98;1629657;88;21560;-57
2021/10/06 03:37:34;;;;;;;31.35;17.73;;;;;;;3.48;80.48;95264.55;1629151;88;20978;-56
2021/10/06 03:40:00;;;;;;;26.05;14.87;;;;;;;3.47;80.06;95260.87;1629538;88;21050;-56
2021/10/06 03:42:27;;;;;;;31.05;15.05;;;;;;;3.43;79.76;95263.39;1629948;88;21103;-56
2021/10/06 03:44:53;;;;;;;30.88;15.93;;;;;;;3.36;79.58;95267.45;1629786;88;20987;-56
2021/10/06 03:47:20;;;;;;;32.30;17.65;;;;;;;3.31;79.69;95261.84;1629684;88;21859;-58
2021/10/06 03:49:46;;;;;;;37.33;19.05;;;;;;;3.31;79.81;95256.97;1629936;88;21083;-57
2021/10/06 03:52:13;;;;;;;38.38;20.35;;;;;;;3.31;79.92;95255.04;1630086;88;21570;-58
2021/10/06 03:54:39;;;;;;;27.82;16.70;;;;;;;3.29;80.01;95255.22;1655576;86;20999;-56
2021/10/06 03:57:06;;;;;;;29.07;15.68;;;;;;;3.26;80.24;95252.69;1655343;86;21526;-56
2021/10/06 03:59:33;;;;;;;27.58;15.25;;;;;;;3.28;80.13;95250.95;1655507;86;21140;-55
2021/10/06 04:01:59;;;;;;;30.95;16.48;;;;;;;3.30;79.73;95254.84;1655497;86;21487;-56
2021/10/06 04:04:26;;;;;;;35.80;21.00;;;;;;;3.32;79.52;95251.72;1655351;86;21047;-56
2021/10/06 04:06:52;;;;;;;36.13;18.48;;;;;;;3.33;79.39;95247.84;1655399;86;21531;-58
2021/10/06 04:09:19;;;;;;;35.38;17.45;;;;;;;3.34;79.42;95253.47;1655225;85;21075;-56
2021/10/06 04:11:45;;;;;;;33.95;19.00;;;;;;;3.36;79.60;95248.41;1655409;86;21818;-57
2021/10/06 04:14:12;;;;;;;33.33;17.80;;;;;;;3.36;79.70;95252.49;1655248;86;20983;-56
2021/10/06 04:16:39;;;;;;;25.75;15.28;;;;;;;3.31;79.68;95259.69;1655410;86;21039;-56
2021/10/06 04:19:05;;;;;;;25.68;14.90;;;;;;;3.26;79.61;95264.16;1655279;86;21109;-56
2021/10/06 04:21:32;;;;;;;28.85;16.35;;;;;;;3.16;79.53;95259.48;1655507;86;20983;-57
2021/10/06 04:23:59;;;;;;;36.63;18.55;;;;;;;2.96;79.80;95255.58;1655394;86;21141;-57
2021/10/06 04:26:26;;;;;;;49.48;20.27;;;;;;;2.83;80.34;95258.48;1668206;85;21047;-57
2021/10/06 04:28:52;;;;;;;63.13;21.48;;;;;;;2.80;80.76;95260.59;1678570;85;20976;-57
2021/10/06 04:31:19;;;;;;;35.35;20.75;;;;;;;2.78;80.96;95259.63;1678785;85;20980;-56
2021/10/06 04:33:47;;;;;;;49.13;22.10;;;;;;;2.82;81.06;95265.05;1678463;85;21074;-57
2021/10/06 04:36:14;;;;;;;57.93;25.27;;;;;;;2.85;81.10;95262.34;1678796;85;21146;-57
2021/10/06 04:38:40;;;;;;;46.20;20.25;;;;;;;2.89;80.91;95253.62;1678345;85;20960;-57
2021/10/06 04:41:09;;;;;;;33.58;20.37;;;;;;;2.94;80.82;95258.70;1678907;84;21011;-58
2021/10/06 04:43:35;;;;;;;37.25;18.70;;;;;;;2.99;80.69;95252.87;1678561;85;21519;-57
2021/10/06 04:46:02;;;;;;;30.02;18.60;;;;;;;3.02;80.54;95252.09;1678884;84;20977;-57
2021/10/06 04:48:29;;;;;;;37.25;22.02;;;;;;;3.09;80.38;95256.77;1678417;85;21157;-58
2021/10/06 04:50:56;;;;;;;119.62;55.33;;;;;;;3.13;80.26;95260.26;1678687;85;21061;-57
2021/10/06 04:53:22;;;;;;;53.40;27.65;;;;;;;3.19;80.30;95261.42;1678571;85;21074;-56
2021/10/06 04:55:49;;;;;;;52.95;23.45;;;;;;;3.17;80.16;95264.54;1678648;85;21516;-57
2021/10/06 04:58:16;;;;;;;53.23;24.47;;;;;;;3.14;80.40;95261.81;1678376;85;21077;-58
2021/10/06 05:00:43;;;;;;;47.53;24.35;;;;;;;3.11;80.43;95268.02;1678670;84;21781;-57
2021/10/06 05:03:11;;;;;;;84.62;26.17;;;;;;;3.10;80.51;95275.41;1678730;85;21078;-66
2021/10/06 05:05:39;;;;;;;59.80;21.75;;;;;;;3.10;80.44;95278.13;1678617;85;21011;-58
2021/10/06 05:08:07;;;;;;;30.35;18.45;;;;;;;3.15;80.52;95282.39;1678439;85;21039;-57
2021/10/06 05:10:34;;;;;;;36.40;18.67;;;;;;;3.16;80.28;95281.23;1678975;85;21082;-57
2021/10/06 05:13:00;;;;;;;42.58;19.12;;;;;;;3.12;80.54;95279.88;1678374;85;21163;-58
2021/10/06 05:15:29;;;;;;;31.33;18.25;;;;;;;3.11;80.55;95270.74;1678692;85;20951;-59
2021/10/06 05:17:55;;;;;;;39.33;19.70;;;;;;;3.15;80.68;95268.80;1677972;84;21042;-60
2021/10/06 05:20:22;;;;;;;51.02;27.70;;;;;;;3.16;80.61;95273.07;1646002;86;21090;-59
2021/10/06 05:22:49;;;;;;;47.08;24.10;;;;;;;3.13;80.42;95267.84;1667653;85;21074;-58
2021/10/06 05:25:15;;;;;;;52.25;26.17;;;;;;;3.15;80.51;95274.23;1672944;85;21153;-56
2021/10/06 05:27:43;;;;;;;52.23;24.92;;;;;;;3.19;80.52;95270.94;1680434;85;21020;-58
2021/10/06 05:30:12;;;;;;;52.25;24.52;;;;;;;3.28;80.59;95268.02;1651857;85;21121;-58
2021/10/06 05:32:40;;;;;;;55.80;25.90;;;;;;;3.36;80.57;95272.89;1659491;86;21033;-58
2021/10/06 05:35:08;;;;;;;55.55;28.00;;;;;;;3.47;80.61;95268.23;1661621;85;21046;-59
2021/10/06 05:37:35;;;;;;;42.05;22.35;;;;;;;3.56;80.59;95266.68;1661141;86;21230;-59
2021/10/06 05:40:03;;;;;;;51.65;24.07;;;;;;;3.69;80.46;95267.84;1659130;85;20911;-60
2021/10/06 05:42:31;;;;;;;65.20;28.52;;;;;;;3.81;80.45;95275.02;1662417;86;22394;-61
2021/10/06 05:44:57;;;;;;;72.27;33.00;;;;;;;3.91;80.10;95270.72;1659572;86;21033;-60
2021/10/06 05:47:24;;;;;;;43.13;25.55;;;;;;;3.94;80.05;95263.92;1657991;86;21062;-57
2021/10/06 05:49:51;;;;;;;63.92;22.58;;;;;;;3.96;80.23;95264.30;1665201;86;21097;-60
2021/10/06 05:52:17;;;;;;;57.80;24.75;;;;;;;4.05;80.33;95266.02;1664610;85;21527;-60
2021/10/06 05:54:44;;;;;;;54.20;23.05;;;;;;;4.16;80.09;95265.42;1665261;85;21175;-58
2021/10/06 05:57:11;;;;;;;60.50;21.42;;;;;;;4.22;79.58;95273.36;1666771;85;22861;-59
2021/10/06 05:59:38;;;;;;;45.30;22.15;;;;;;;4.20;79.49;95272.22;1657399;85;21069;-60
2021/10/06 06:02:04;;;;;;;55.58;23.12;;;;;;;4.23;79.48;95274.91;1664140;85;22428;-60
2021/10/06 06:04:32;;;;;;;58.50;25.62;;;;;;;4.26;79.18;95271.40;1663818;85;21027;-60
2021/10/06 06:06:58;;;;;;;60.00;25.08;;;;;;;4.28;79.45;95266.33;1660751;85;21011;-59
2021/10/06 06:09:25;;;;;;;52.40;25.52;;;;;;;4.36;79.34;95265.73;1625554;85;21428;-61
2021/10/06 06:11:52;;;;;;;58.90;29.25;;;;;;;4.43;79.22;95268.44;1665481;85;21150;-59
2021/10/06 06:14:21;;;;;;;48.75;27.85;;;;;;;4.54;79.37;95278.13;1661259;85;21026;-61
2021/10/06 06:16:48;;;;;;;55.15;24.30;;;;;;;4.71;79.23;95280.56;1667980;84;21070;-61
2021/10/06 06:19:15;;;;;;;38.55;20.12;;;;;;;4.87;78.94;95280.31;1662242;85;21108;-61
2021/10/06 06:21:44;;;;;;;39.25;20.35;;;;;;;5.04;78.61;95281.38;1670382;85;22292;-60
2021/10/06 06:24:12;;;;;;;25.08;15.38;;;;;;;5.12;78.45;95278.81;1668839;85;21037;-61
2021/10/06 06:26:39;;;;;;;31.77;18.00;;;;;;;5.20;78.39;95277.00;1669388;85;21146;-59
2021/10/06 06:29:06;;;;;;;44.33;18.87;;;;;;;5.27;78.25;95281.03;1664236;85;21046;-59
2021/10/06 06:31:32;;;;;;;35.10;15.75;;;;;;;5.36;77.93;95275.32;1664572;85;21127;-59
2021/10/06 06:33:59;;;;;;;38.38;15.95;;;;;;;5.47;77.67;95273.30;1671233;85;21203;-62
2021/10/06 06:36:26;;;;;;;40.70;16.70;;;;;;;5.56;77.66;95267.36;1671385;84;21106;-61
2021/10/06 06:38:53;;;;;;;28.75;16.85;;;;;;;5.71;77.63;95268.80;1672783;84;21241;-57
2021/10/06 06:41:20;;;;;;;34.90;15.78;;;;;;;5.86;77.29;95267.53;1671628;84;21041;-59
2021/10/06 06:43:47;;;;;;;32.17;16.48;;;;;;;5.97;77.02;95269.58;1662659;84;21071;-60
2021/10/06 06:46:13;;;;;;;31.57;16.73;;;;;;;6.10;76.77;95266.50;1662367;84;21163;-58
2021/10/06 06:48:41;;;;;;;27.98;16.15;;;;;;;6.27;76.57;95257.36;1650400;86;21018;-62
2021/10/06 06:51:09;;;;;;;29.10;15.85;;;;;;;6.46;76.46;95247.19;1672148;84;21147;-60
2021/10/06 06:53:36;;;;;;;32.83;14.85;;;;;;;6.64;75.81;95249.11;1650820;86;21021;-62
2021/10/06 06:56:03;;;;;;;31.30;14.15;;;;;;;6.78;75.48;95248.94;1647167;85;20998;-59
2021/10/06 06:58:30;;;;;;;36.93;15.13;;;;;;;6.94;75.36;95258.69;1672507;84;21094;-60
2021/10/06 07:00:58;;;;;;;34.58;17.17;;;;;;;7.08;75.06;95251.85;1675878;84;21101;-62
2021/10/06 07:03:24;;;;;;;32.23;17.10;;;;;;;7.22;74.57;95257.12;1676849;84;21131;-60
2021/10/06 07:05:52;;;;;;;39.88;17.17;;;;;;;7.31;74.21;95257.98;1671920;84;21058;-61
2021/10/06 07:08:18;;;;;;;26.68;16.10;;;;;;;7.40;74.15;95255.48;1660011;84;21133;-62
2021/10/06 07:10:45;;;;;;;36.55;18.32;;;;;;;7.56;73.95;95252.89;1639886;85;21155;-62
2021/10/06 07:13:12;;;;;;;35.10;19.32;;;;;;;7.66;73.48;95256.83;1658926;84;21144;-58
2021/10/06 07:15:39;;;;;;;58.20;21.50;;;;;;;7.74;73.27;95256.88;1684130;83;21148;-62
2021/10/06 07:18:06;;;;;;;44.80;20.37;;;;;;;7.87;73.03;95248.25;1670764;83;20900;-61
2021/10/06 07:20:32;;;;;;;48.45;20.95;;;;;;;7.99;72.55;95253.14;1681124;83;21113;-61
2021/10/06 07:22:59;;;;;;;43.05;19.85;;;;;;;8.11;71.90;95261.34;1694244;83;21019;-61
2021/10/06 07:25:25;;;;;;;39.00;22.02;;;;;;;8.23;71.60;95253.93;1680059;83;21129;-59
2021/10/06 07:27:52;;;;;;;43.75;20.25;;;;;;;8.38;71.23;95253.23;1702265;83;21192;-62
2021/10/06 07:30:19;;;;;;;37.08;18.17;;;;;;;8.58;70.61;95252.65;1708345;82;21051;-61
2021/10/06 07:32:46;;;;;;;28.67;16.77;;;;;;;8.75;69.85;95244.66;1693548;83;21012;-61
2021/10/06 07:35:13;;;;;;;34.92;18.48;;;;;;;8.92;69.13;95244.28;1699519;83;21005;-61
2021/10/06 07:37:39;;;;;;;54.03;20.23;;;;;;;9.10;68.26;95243.31;1683940;83;21147;-61
2021/10/06 07:40:08;;;;;;;46.90;18.65;;;;;;;9.26;67.80;95241.22;1699038;82;21142;-60
2021/10/06 07:42:36;;;;;;;33.28;17.02;;;;;;;9.45;67.52;95233.52;1694235;81;21114;-59
2021/10/06 07:45:04;;;;;;;37.95;17.92;;;;;;;9.65;67.66;95236.96;1687187;83;21053;-59
2021/10/06 07:47:31;;;;;;;40.78;18.98;;;;;;;9.81;67.68;95233.60;1698879;83;21003;-57
2021/10/06 07:49:58;;;;;;;33.28;18.15;;;;;;;9.99;67.10;95230.42;1684539;83;21015;-59
2021/10/06 07:52:25;;;;;;;33.40;17.70;;;;;;;10.13;66.91;95225.36;1691322;83;21372;-58
2021/10/06 07:54:52;;;;;;;33.45;16.60;;;;;;;10.31;65.87;95230.41;1700532;83;20991;-61
2021/10/06 07:57:19;;;;;;;25.08;13.85;;;;;;;10.51;65.02;95231.05;1691633;83;21022;-61
2021/10/06 07:59:46;;;;;;;25.37;14.68;;;;;;;10.66;63.51;95223.33;1699067;83;21816;-60
2021/10/06 08:02:13;;;;;;;21.05;12.30;;;;;;;10.78;63.10;95215.10;1701782;83;21172;-59
2021/10/06 08:04:39;;;;;;;19.73;11.10;;;;;;;10.93;62.12;95217.62;1694373;83;21236;-58
2021/10/06 08:07:06;;;;;;;19.30;10.48;;;;;;;11.10;60.54;95220.45;1666133;84;21023;-59
2021/10/06 08:09:34;;;;;;;16.60;11.50;;;;;;;11.30;59.83;95218.27;1639417;85;21075;-60
2021/10/06 08:12:04;;;;;;;20.30;9.80;;;;;;;11.52;59.03;95215.02;1635867;85;21394;-60
2021/10/06 08:14:31;;;;;;;16.70;9.23;;;;;;;11.70;58.29;95224.14;1640013;85;21070;-60
2021/10/06 08:17:00;;;;;;;11.65;8.13;;;;;;;11.84;57.52;95214.80;1639933;86;22172;-58
2021/10/06 08:19:27;;;;;;;13.48;7.42;;;;;;;12.00;56.85;95218.02;1630701;86;21549;-60
2021/10/06 08:21:53;;;;;;;12.70;7.58;;;;;;;12.13;55.67;95216.01;1619109;86;21066;-58
2021/10/06 08:24:20;;;;;;;13.28;7.05;;;;;;;12.28;54.79;95212.31;1673256;83;21188;-59
2021/10/06 08:26:47;;;;;;;9.45;6.40;;;;;;;12.44;53.84;95212.77;1685430;83;22304;-59
2021/10/06 08:29:14;;;;;;;11.28;6.17;;;;;;;12.56;53.01;95207.95;1693146;83;21168;-63
2021/10/06 08:31:41;;;;;;;15.55;7.35;;;;;;;12.66;52.25;95206.81;1689843;83;21534;-61
2021/10/06 08:34:08;;;;;;;19.07;6.03;;;;;;;12.77;52.24;95198.14;1674051;84;21057;-61
2021/10/06 08:36:37;;;;;;;6.50;5.67;;;;;;;12.90;52.25;95188.56;1672765;84;21365;-62
2021/10/06 08:39:08;;;;;;;8.35;6.50;;;;;;;13.07;51.05;95189.17;1674140;84;21315;-61
2021/10/06 08:41:35;;;;;;;8.28;5.90;;;;;;;13.19;49.82;95193.82;1661428;84;21291;-60
2021/10/06 08:44:03;;;;;;;10.18;5.60;;;;;;;13.29;48.92;95196.17;1664087;85;21519;-61
2021/10/06 08:46:30;;;;;;;7.22;5.58;;;;;;;13.41;49.34;95196.70;1646097;85;21580;-61
2021/10/06 08:48:58;;;;;;;7.58;4.85;;;;;;;13.55;49.11;95198.13;1645477;86;21025;-61
2021/10/06 08:51:25;;;;;;;9.33;5.37;;;;;;;13.71;48.38;95188.20;1638348;86;21140;-63
2021/10/06 08:53:52;;;;;;;13.53;5.97;;;;;;;13.86;48.23;95181.66;1643890;86;21134;-62
2021/10/06 08:56:27;;;;;;;10.00;5.35;;;;;;;14.00;47.53;95180.30;1634175;86;21123;-61
2021/10/06 08:58:48;;;;;;;7.67;5.45;;;;;;;14.17;46.27;95178.20;1643075;86;21066;-66
2021/10/06 09:01:27;;;;;;;7.05;5.30;;;;;;;14.35;45.80;95177.45;1688730;82;21609;-61
2021/10/06 09:04:02;;;;;;;8.60;4.70;;;;;;;14.49;44.74;95175.59;1704260;83;20984;-62
2021/10/06 09:06:42;;;;;;;9.55;5.12;;;;;;;14.63;44.03;95174.98;1687076;83;21183;-62
2021/10/06 09:09:18;;;;;;;9.18;4.60;;;;;;;14.73;44.32;95179.30;1677463;83;21112;-62
2021/10/06 09:11:48;;;;;;;6.03;4.22;;;;;;;14.93;44.16;95180.17;1693314;83;21196;-60
2021/10/06 09:14:16;;;;;;;8.00;4.08;;;;;;;15.19;44.08;95171.03;1686242;82;22346;-62
2021/10/06 09:16:44;;;;;;;8.85;4.17;;;;;;;15.45;42.07;95170.06;1699777;82;21097;-61
2021/10/06 09:19:11;;;;;;;8.35;4.30;;;;;;;15.61;42.09;95168.30;1689159;83;21107;-60
2021/10/06 09:21:55;;;;;;;8.45;3.80;;;;;;;15.77;41.62;95170.70;1670667;84;21047;-62
2021/10/06 09:24:23;;;;;;;12.98;4.62;;;;;;;15.99;40.60;95176.73;1701117;83;21026;-63
2021/10/06 09:27:05;;;;;;;7.17;3.83;;;;;;;16.27;39.02;95173.31;1699420;83;21038;-62
2021/10/06 09:29:49;;;;;;;14.10;4.45;;;;;;;16.56;39.08;95168.64;1715359;82;21480;-63
2021/10/06 09:32:25;;;;;;;6.62;4.10;;;;;;;16.80;37.51;95176.94;1697876;83;21582;-60
2021/10/06 09:35:18;;;;;;;7.97;4.20;;;;;;;16.94;37.50;95162.30;1672425;83;21817;-60
2021/10/06 09:37:49;;;;;;;17.52;6.17;;;;;;;17.20;38.37;95158.48;1693137;82;21227;-61
2021/10/06 09:40:18;;;;;;;15.08;4.95;;;;;;;17.69;37.01;95165.52;1693513;82;21067;-61
2021/10/06 09:42:50;;;;;;;6.80;3.40;;;;;;;18.32;35.78;95164.03;1698202;82;21097;-59
2021/10/06 09:45:38;;;;;;;10.35;4.00;;;;;;;18.91;34.16;95159.70;1695272;83;21139;-60
2021/10/06 09:48:16;;;;;;;5.75;2.60;;;;;;;19.39;33.86;95156.50;1661166;82;21069;-61
2021/10/06 09:50:47;;;;;;;4.85;3.20;;;;;;;20.01;33.18;95159.28;1704812;82;21078;-59
2021/10/06 09:53:19;;;;;;;6.58;3.27;;;;;;;20.52;32.46;95168.87;1686862;83;21124;-59
2021/10/06 09:55:50;;;;;;;8.30;3.80;;;;;;;20.92;31.16;95167.16;1690081;83;21057;-61
2021/10/06 09:58:19;;;;;;;5.42;3.20;;;;;;;21.29;30.84;95169.16;1693149;83;21069;-59
2021/10/06 10:00:48;;;;;;;4.22;3.08;;;;;;;21.69;30.73;95170.86;1680337;82;21039;-64
2021/10/06 10:03:15;;;;;;;5.50;2.70;;;;;;;21.99;30.71;95166.27;1692669;83;21127;-61
2021/10/06 10:05:43;;;;;;;8.25;2.70;;;;;;;22.35;30.11;95170.17;1705807;84;21655;-60
2021/10/06 10:08:11;;;;;;;6.03;3.08;;;;;;;22.66;29.95;95159.28;1680765;83;20954;-62
2021/10/06 10:10:38;;;;;;;17.23;3.85;;;;;;;22.94;28.42;95164.89;1706698;82;21160;-60
2021/10/06 10:13:07;;;;;;;4.60;2.58;;;;;;;23.19;27.96;95166.57;1695349;83;21067;-61
2021/10/06 10:15:35;;;;;;;18.80;3.58;;;;;;;23.53;28.11;95156.66;1696764;82;22266;-62
2021/10/06 10:18:04;;;;;;;4.42;2.20;;;;;;;23.98;27.92;95163.47;1707062;83;21038;-59
2021/10/06 10:20:43;;;;;;;19.23;4.80;;;;;;;24.53;27.04;95154.54;1692465;83;21144;-60
2021/10/06 10:23:13;;;;;;;4.75;2.20;;;;;;;24.95;26.81;95158.00;1709064;83;21334;-61
2021/10/06 10:25:43;;;;;;;9.18;2.80;;;;;;;25.35;26.72;95152.75;1685959;82;21207;-62
2021/10/06 10:28:21;;;;;;;7.12;2.37;;;;;;;25.51;26.04;95147.52;1674021;83;20979;-59
2021/10/06 10:30:59;;;;;;;7.92;2.40;;;;;;;25.67;25.04;95153.55;1685442;83;20934;-64
2021/10/06 10:33:48;;;;;;;5.47;2.30;;;;;;;25.78;24.76;95144.91;1700217;83;21078;-61
2021/10/06 10:36:43;;;;;;;8.53;2.20;;;;;;;25.82;25.62;95134.84;1701458;82;21622;-64
2021/10/06 10:39:45;;;;;;;3.52;2.20;;;;;;;26.24;25.62;95138.89;1699384;82;21348;-60
2021/10/06 10:42:13;;;;;;;6.35;2.67;;;;;;;26.47;24.69;95136.43;1703288;83;21108;-63
2021/10/06 10:44:41;;;;;;;5.33;2.10;;;;;;;26.48;25.63;95141.55;1693572;83;21066;-60
2021/10/06 10:47:08;;;;;;;6.95;2.92;;;;;;;26.65;25.59;95129.95;1708901;82;21105;-63
2021/10/06 10:49:53;;;;;;;4.25;3.12;;;;;;;26.84;24.63;95140.48;1716698;82;21095;-63
2021/10/06 10:52:48;;;;;;;7.75;2.70;;;;;;;26.94;24.25;95126.01;1708141;83;22240;-60
2021/10/06 10:55:16;;;;;;;11.95;3.15;;;;;;;26.96;23.90;95134.69;1685641;83;21022;-61
2021/10/06 10:57:43;;;;;;;9.83;3.12;;;;;;;26.96;23.93;95129.81;1701287;83;21012;-61
2021/10/06 11:00:31;;;;;;;8.50;3.50;;;;;;;26.92;23.86;95130.03;1679759;83;21128;-60
2021/10/06 11:03:01;;;;;;;7.92;3.65;;;;;;;26.91;23.38;95126.46;1690502;83;21119;-58
2021/10/06 11:05:44;;;;;;;8.10;3.40;;;;;;;26.94;24.33;95118.30;1688610;82;21125;-60
2021/10/06 11:08:25;;;;;;;12.60;4.60;;;;;;;27.21;24.99;95118.38;1682099;82;21051;-59
2021/10/06 11:11:19;;;;;;;7.25;3.22;;;;;;;27.80;24.42;95131.68;1683071;83;21534;-61
2021/10/06 11:13:47;;;;;;;7.37;2.85;;;;;;;28.17;23.45;95118.53;1672848;83;21006;-60
2021/10/06 11:16:14;;;;;;;10.85;2.92;;;;;;;28.37;22.68;95131.28;1664664;83;21621;-62
2021/10/06 11:18:49;;;;;;;7.80;3.52;;;;;;;28.40;22.46;95123.09;1646550;85;21482;-59
2021/10/06 11:21:32;;;;;;;3.37;2.77;;;;;;;28.45;23.14;95117.19;1649372;85;21052;-61
2021/10/06 11:23:59;;;;;;;10.20;3.10;;;;;;;28.77;23.46;95107.68;1638072;85;21529;-62
2021/10/06 11:26:29;;;;;;;5.92;2.50;;;;;;;28.82;23.48;95104.70;1632822;85;21204;-60
2021/10/06 11:28:56;;;;;;;4.40;2.42;;;;;;;28.76;23.69;95103.33;1627260;86;21905;-61
2021/10/06 11:31:27;;;;;;;11.40;2.83;;;;;;;28.83;23.15;95101.19;1644870;85;21465;-60
2021/10/06 11:33:55;;;;;;;5.63;2.80;;;;;;;28.61;22.95;95111.06;1644898;85;21000;-60